Time;durP1;ratioP1;P1;durP2;ratioP2;P2;SDS_P1;SDS_P2;PMS_P1;PMS_P2;Temp;Humidity;BMP_temperature;BMP_pressure;BME280_temperature;BME280_humidity;BME280_pressure;Samples;Min_cycle;Max_cycle;Signal;HPM_P1;HPM_P2
2022/05/10 00:00:16;;;;;;;0.10;0.10;;;15.10;99.90;;;;;;5018344;28;20058;-72
2022/05/10 00:02:42;;;;;;;0.40;0.40;;;15.10;99.90;;;;;;5026409;28;20041;-72
2022/05/10 00:05:08;;;;;;;0.20;0.20;;;15.10;99.90;;;;;;5019482;28;20491;-72
2022/05/10 00:07:36;;;;;;;0.10;0.10;;;15.20;99.90;;;;;;5009371;28;20280;-72
2022/05/10 00:10:07;;;;;;;0.60;0.60;;;15.10;99.90;;;;;;5019429;28;20052;-72
2022/05/10 00:12:33;;;;;;;0.10;0.10;;;15.10;99.90;;;;;;5019397;28;20124;-71
2022/05/10 00:14:59;;;;;;;0.65;0.65;;;15.00;99.90;;;;;;5023326;28;20128;-72
2022/05/10 00:17:33;;;;;;;0.38;0.32;;;15.00;99.90;;;;;;5021977;28;20040;-71
2022/05/10 00:19:59;;;;;;;0.08;0.08;;;15.00;99.90;;;;;;5026223;28;20597;-71
2022/05/10 00:22:24;;;;;;;0.57;0.57;;;14.90;99.90;;;;;;5024654;28;20140;-71
2022/05/10 00:24:50;;;;;;;0.10;0.10;;;14.90;99.90;;;;;;5026377;28;20045;-71
2022/05/10 00:27:17;;;;;;;0.10;0.10;;;14.80;99.90;;;;;;5013022;28;20042;-71
2022/05/10 00:29:42;;;;;;;1.35;0.17;;;14.90;99.90;;;;;;5024464;28;20499;-71
2022/05/10 00:32:09;;;;;;;0.00;0.00;;;14.80;99.90;;;;;;5017682;28;20124;-71
2022/05/10 00:34:35;;;;;;;0.90;0.68;;;14.70;99.90;;;;;;5018373;28;20060;-71
2022/05/10 00:37:01;;;;;;;3.40;1.60;;;14.70;99.90;;;;;;5020355;28;20053;-71
2022/05/10 00:39:26;;;;;;;0.57;0.57;;;14.60;99.90;;;;;;5013931;28;20052;-71
2022/05/10 00:42:19;;;;;;;0.00;0.00;;;14.60;99.90;;;;;;5028639;28;20046;-71
2022/05/10 00:44:58;;;;;;;0.43;0.43;;;14.60;99.90;;;;;;5017297;28;20060;-71
2022/05/10 00:47:47;;;;;;;1.15;0.57;;;14.50;99.90;;;;;;5026564;28;20049;-71
2022/05/10 00:50:31;;;;;;;2.17;1.38;;;14.60;99.90;;;;;;5025821;28;20057;-71
2022/05/10 00:53:07;;;;;;;0.50;0.50;;;14.60;99.90;;;;;;5019582;28;20136;-71
2022/05/10 00:55:48;;;;;;;2.92;1.58;;;14.60;99.90;;;;;;5022060;28;20069;-71
2022/05/10 00:58:35;;;;;;;0.20;0.20;;;14.60;99.90;;;;;;5017307;28;20053;-71
2022/05/10 01:01:02;;;;;;;0.50;0.50;;;14.60;99.90;;;;;;5018047;28;20393;-71
2022/05/10 01:04:11;;;;;;;0.47;0.32;;;14.60;99.90;;;;;;5025922;28;20473;-71
2022/05/10 01:07:01;;;;;;;1.10;1.02;;;14.50;99.90;;;;;;5018654;28;20060;-71
2022/05/10 01:09:38;;;;;;;0.30;0.30;;;14.50;99.90;;;;;;5024151;28;20061;-71
2022/05/10 01:12:13;;;;;;;0.45;0.45;;;14.60;99.90;;;;;;5022571;28;20056;-71
2022/05/10 01:14:49;;;;;;;0.95;0.95;;;14.50;99.90;;;;;;5027566;28;21091;-71
2022/05/10 01:17:15;;;;;;;1.00;0.73;;;14.50;99.90;;;;;;5021067;28;20164;-71
2022/05/10 01:19:43;;;;;;;0.00;0.00;;;14.60;99.90;;;;;;5020374;28;20125;-71
2022/05/10 01:22:50;;;;;;;2.80;1.35;;;14.60;99.90;;;;;;5020851;28;20049;-71
2022/05/10 01:25:22;;;;;;;0.20;0.20;;;14.60;99.90;;;;;;5025317;28;20053;-71
2022/05/10 01:28:33;;;;;;;0.25;0.25;;;14.50;99.90;;;;;;5025174;28;20053;-71
2022/05/10 01:31:04;;;;;;;0.52;0.52;;;14.50;99.90;;;;;;5012991;28;20085;-71
2022/05/10 01:33:35;;;;;;;0.25;0.25;;;14.40;99.90;;;;;;5008938;28;20054;-71
2022/05/10 01:36:04;;;;;;;0.10;0.10;;;14.50;99.90;;;;;;5023648;28;20033;-71
2022/05/10 01:39:08;;;;;;;0.10;0.10;;;14.40;99.90;;;;;;5015341;28;20054;-71
2022/05/10 01:41:39;;;;;;;0.65;0.65;;;14.40;99.90;;;;;;5023038;28;20041;-71
2022/05/10 01:44:14;;;;;;;0.25;0.25;;;14.40;99.90;;;;;;5014022;28;20050;-71
2022/05/10 01:46:40;;;;;;;0.68;0.47;;;14.30;99.90;;;;;;5018013;28;20553;-71
2022/05/10 01:49:19;;;;;;;0.82;0.80;;;14.30;99.90;;;;;;5025214;28;20128;-71
2022/05/10 01:52:20;;;;;;;0.80;0.50;;;14.30;99.90;;;;;;5021044;28;20397;-71
2022/05/10 01:54:59;;;;;;;1.02;0.55;;;14.30;99.90;;;;;;5009363;28;20064;-71
2022/05/10 01:57:27;;;;;;;0.55;0.55;;;14.30;99.90;;;;;;5011757;28;20042;-71
2022/05/10 02:00:14;;;;;;;0.08;0.08;;;14.30;99.90;;;;;;5022991;28;20665;-71
2022/05/10 02:02:47;;;;;;;0.30;0.30;;;14.30;99.90;;;;;;5008626;28;20046;-71
2022/05/10 02:05:20;;;;;;;0.70;0.70;;;14.30;99.90;;;;;;5024802;28;20088;-71
2022/05/10 02:07:49;;;;;;;0.08;0.08;;;14.20;99.90;;;;;;5026039;28;20038;-71
2022/05/10 02:10:22;;;;;;;2.65;0.70;;;14.30;99.90;;;;;;5024849;28;20120;-71
2022/05/10 02:13:21;;;;;;;0.82;0.70;;;14.30;99.90;;;;;;5017717;28;20041;-71
2022/05/10 02:15:56;;;;;;;1.00;0.60;;;14.30;99.90;;;;;;5004139;28;20064;-71
2022/05/10 02:18:38;;;;;;;0.60;0.60;;;14.30;99.90;;;;;;5023000;28;20176;-71
2022/05/10 02:21:24;;;;;;;0.03;0.03;;;14.40;99.90;;;;;;5025436;28;20066;-71
2022/05/10 02:24:10;;;;;;;0.40;0.40;;;14.40;99.90;;;;;;5027468;28;20171;-72
2022/05/10 02:26:47;;;;;;;1.52;0.40;;;14.30;99.90;;;;;;5030248;28;20385;-72
2022/05/10 02:29:28;;;;;;;0.15;0.15;;;14.40;99.90;;;;;;5020488;28;20058;-72
2022/05/10 02:35:08;;;;;;;0.68;0.68;;;14.50;99.90;;;;;;5019594;28;20056;-71
2022/05/10 02:37:34;;;;;;;0.10;0.10;;;14.50;99.90;;;;;;5011657;28;20038;-72
2022/05/10 02:40:00;;;;;;;0.10;0.10;;;14.60;99.90;;;;;;5015570;28;20469;-72
2022/05/10 02:42:27;;;;;;;0.30;0.30;;;14.60;99.90;;;;;;5015550;28;20084;-72
2022/05/10 02:44:55;;;;;;;0.22;0.22;;;14.60;99.90;;;;;;5028433;28;20045;-71
2022/05/10 02:47:33;;;;;;;0.47;0.47;;;14.50;99.90;;;;;;5026881;28;20045;-72
2022/05/10 02:49:59;;;;;;;0.40;0.40;;;14.50;99.90;;;;;;5010340;28;20045;-72
2022/05/10 02:52:25;;;;;;;0.00;0.00;;;14.50;99.90;;;;;;5009930;28;20496;-72
2022/05/10 02:55:09;;;;;;;0.10;0.10;;;14.60;99.90;;;;;;5013291;28;20050;-71
2022/05/10 02:57:35;;;;;;;0.20;0.20;;;14.60;99.90;;;;;;5012151;28;20588;-71
2022/05/10 03:00:03;;;;;;;0.43;0.43;;;14.80;99.90;;;;;;5022792;28;20045;-72
2022/05/10 03:02:39;;;;;;;3.42;0.73;;;14.70;99.90;;;;;;5018167;28;20072;-71
2022/05/10 03:05:06;;;;;;;0.28;0.28;;;14.70;99.90;;;;;;5024282;28;20551;-72
2022/05/10 03:07:32;;;;;;;0.43;0.43;;;14.70;99.90;;;;;;5014169;28;20088;-72
2022/05/10 03:09:57;;;;;;;0.32;0.32;;;14.70;99.90;;;;;;5026419;28;20068;-72
2022/05/10 03:12:23;;;;;;;0.45;0.45;;;14.80;99.90;;;;;;5025797;28;20518;-72
2022/05/10 03:14:50;;;;;;;0.20;0.20;;;14.80;99.90;;;;;;5027089;28;20049;-72
2022/05/10 03:17:15;;;;;;;0.10;0.10;;;14.80;99.90;;;;;;5018381;28;20045;-72
2022/05/10 03:19:42;;;;;;;0.75;0.75;;;14.80;99.90;;;;;;5030475;28;20060;-72
2022/05/10 03:22:10;;;;;;;0.20;0.20;;;14.90;99.90;;;;;;5027528;28;20041;-71
2022/05/10 03:24:36;;;;;;;0.70;0.63;;;14.90;99.90;;;;;;5022282;28;20041;-71
2022/05/10 03:27:05;;;;;;;2.75;1.48;;;14.90;99.90;;;;;;5010824;28;20042;-72
2022/05/10 03:29:31;;;;;;;0.57;0.57;;;15.00;99.90;;;;;;5022411;28;20049;-72
2022/05/10 03:31:56;;;;;;;0.00;0.00;;;15.00;99.90;;;;;;5021412;28;20041;-72
2022/05/10 03:37:07;;;;;;;0.10;0.10;;;15.10;99.90;;;;;;5020115;28;20045;-72
2022/05/10 03:39:32;;;;;;;0.65;0.65;;;15.10;99.90;;;;;;5011497;28;20038;-71
2022/05/10 03:41:58;;;;;;;0.15;0.15;;;15.10;99.90;;;;;;5025973;28;20367;-72
2022/05/10 03:44:24;;;;;;;0.15;0.15;;;15.10;99.90;;;;;;5024823;28;20555;-72
2022/05/10 03:46:50;;;;;;;0.20;0.20;;;15.20;99.90;;;;;;5019210;28;20041;-72
2022/05/10 03:49:16;;;;;;;0.20;0.20;;;15.20;99.90;;;;;;5027624;28;20404;-72
2022/05/10 03:51:41;;;;;;;0.00;0.00;;;15.10;99.90;;;;;;5012708;28;20727;-72
2022/05/10 03:54:07;;;;;;;0.05;0.05;;;15.10;99.90;;;;;;5022771;28;20096;-72
2022/05/10 03:56:36;;;;;;;0.30;0.30;;;15.10;99.90;;;;;;5018095;28;20100;-72
2022/05/10 03:59:02;;;;;;;0.13;0.13;;;15.20;99.90;;;;;;5021040;28;20049;-72
2022/05/10 04:01:28;;;;;;;0.63;0.63;;;15.20;99.90;;;;;;5010054;28;20046;-72
2022/05/10 04:03:53;;;;;;;0.00;0.00;;;15.20;99.90;;;;;;5013078;28;20068;-72
2022/05/10 04:06:19;;;;;;;0.22;0.22;;;15.20;99.90;;;;;;5021160;28;20051;-72
2022/05/10 04:08:45;;;;;;;0.05;0.05;;;15.30;99.90;;;;;;5014050;28;20125;-72
2022/05/10 04:11:12;;;;;;;0.10;0.10;;;15.30;99.90;;;;;;5020752;28;20029;-72
2022/05/10 04:13:39;;;;;;;0.10;0.10;;;15.30;99.90;;;;;;5017690;28;20489;-72
2022/05/10 04:16:05;;;;;;;0.00;0.00;;;15.30;99.90;;;;;;5015615;28;20049;-72
2022/05/10 04:18:31;;;;;;;0.30;0.30;;;15.30;99.90;;;;;;5017054;28;20045;-72
2022/05/10 04:20:57;;;;;;;0.22;0.20;;;15.40;99.90;;;;;;5025142;28;20033;-72
2022/05/10 04:23:22;;;;;;;1.05;1.02;;;15.30;99.90;;;;;;5019765;28;20096;-72
2022/05/10 04:25:48;;;;;;;0.50;0.50;;;15.40;99.90;;;;;;5016037;28;20110;-72
2022/05/10 04:28:13;;;;;;;0.95;0.80;;;15.40;99.90;;;;;;5019704;28;20041;-72
2022/05/10 04:30:39;;;;;;;4.38;0.52;;;15.40;99.90;;;;;;5017920;28;20065;-72
2022/05/10 04:33:04;;;;;;;0.40;0.40;;;15.40;99.90;;;;;;5018507;28;20041;-71
2022/05/10 04:35:30;;;;;;;0.32;0.32;;;15.40;99.90;;;;;;5021669;28;20971;-72
2022/05/10 04:37:56;;;;;;;0.45;0.45;;;15.40;99.90;;;;;;5012754;28;20048;-72
2022/05/10 04:43:06;;;;;;;0.65;0.65;;;15.40;99.90;;;;;;5017395;28;20046;-72
2022/05/10 04:45:34;;;;;;;0.28;0.28;;;15.40;99.90;;;;;;5010778;28;20049;-72
2022/05/10 04:48:00;;;;;;;0.13;0.13;;;15.50;99.90;;;;;;5022472;28;20049;-72
2022/05/10 04:50:25;;;;;;;0.00;0.00;;;15.50;99.90;;;;;;5012921;28;20443;-72
2022/05/10 04:52:51;;;;;;;0.03;0.03;;;15.50;99.90;;;;;;5022273;28;20041;-72
2022/05/10 04:55:17;;;;;;;2.20;0.52;;;15.50;99.90;;;;;;5015654;28;20111;-72
2022/05/10 04:57:42;;;;;;;0.40;0.40;;;15.60;99.90;;;;;;5027090;28;20073;-72
2022/05/10 05:00:12;;;;;;;0.03;0.03;;;15.60;99.90;;;;;;5025219;28;20094;-72
2022/05/10 05:02:38;;;;;;;0.35;0.35;;;15.60;99.90;;;;;;5025754;28;20433;-72
2022/05/10 05:05:05;;;;;;;0.55;0.45;;;15.60;99.90;;;;;;5019914;28;20075;-72
2022/05/10 05:07:30;;;;;;;0.47;0.47;;;15.60;99.90;;;;;;5028454;28;20045;-72
2022/05/10 05:09:56;;;;;;;0.10;0.10;;;15.60;99.90;;;;;;5010246;28;20378;-72
2022/05/10 05:12:22;;;;;;;1.75;0.75;;;15.60;99.90;;;;;;5015746;28;20045;-73
2022/05/10 05:14:47;;;;;;;0.10;0.10;;;15.60;99.90;;;;;;5016732;28;20057;-72
2022/05/10 05:17:13;;;;;;;0.03;0.03;;;15.70;99.90;;;;;;5016232;28;20045;-72
2022/05/10 05:19:38;;;;;;;0.17;0.17;;;15.70;99.90;;;;;;5027450;28;20417;-72
2022/05/10 05:22:04;;;;;;;0.00;0.00;;;15.60;99.90;;;;;;5014634;28;20386;-72
2022/05/10 05:24:30;;;;;;;0.30;0.30;;;15.70;99.90;;;;;;5018250;28;20050;-72
2022/05/10 05:26:55;;;;;;;0.08;0.08;;;15.70;99.90;;;;;;5020519;28;20053;-72
2022/05/10 05:29:21;;;;;;;0.20;0.20;;;15.70;99.90;;;;;;5019802;28;20080;-72
2022/05/10 05:31:48;;;;;;;0.35;0.35;;;15.70;99.90;;;;;;5019853;28;20057;-72
2022/05/10 05:34:14;;;;;;;0.47;0.47;;;15.80;99.90;;;;;;5019912;28;20389;-72
2022/05/10 05:36:39;;;;;;;5.53;2.22;;;15.80;99.90;;;;;;5018215;28;20046;-72
2022/05/10 05:39:05;;;;;;;0.00;0.00;;;15.80;99.90;;;;;;5018826;28;20080;-72
2022/05/10 05:41:30;;;;;;;0.00;0.00;;;15.90;99.90;;;;;;5024163;28;20410;-72
2022/05/10 05:43:56;;;;;;;3.30;1.30;;;16.00;99.90;;;;;;5024642;28;20045;-72
2022/05/10 05:46:21;;;;;;;0.10;0.10;;;16.00;99.90;;;;;;5014602;28;20042;-72
2022/05/10 05:48:47;;;;;;;0.30;0.30;;;16.10;99.90;;;;;;5025273;28;20042;-72
2022/05/10 05:51:12;;;;;;;0.30;0.30;;;16.10;99.90;;;;;;5025054;28;20443;-72
2022/05/10 05:53:38;;;;;;;0.00;0.00;;;16.10;99.90;;;;;;5020688;28;20499;-72
2022/05/10 05:56:10;;;;;;;0.00;0.00;;;16.20;99.90;;;;;;5016723;28;20489;-72
2022/05/10 05:58:37;;;;;;;0.30;0.20;;;16.30;99.90;;;;;;5015308;28;20054;-72
2022/05/10 06:01:10;;;;;;;0.00;0.00;;;16.30;99.90;;;;;;5009614;28;20092;-72
2022/05/10 06:03:35;;;;;;;0.63;0.60;;;16.30;99.90;;;;;;5016975;28;20051;-72
2022/05/10 06:06:01;;;;;;;0.20;0.20;;;16.40;99.90;;;;;;5024597;28;20046;-73
2022/05/10 06:08:26;;;;;;;0.10;0.10;;;16.40;99.90;;;;;;5024589;28;20374;-73
2022/05/10 06:10:52;;;;;;;0.75;0.75;;;16.40;99.90;;;;;;5007024;28;20046;-73
2022/05/10 06:13:21;;;;;;;0.75;0.75;;;16.40;99.90;;;;;;5013368;28;20080;-72
2022/05/10 06:15:47;;;;;;;3.38;0.80;;;16.40;99.90;;;;;;5022347;28;20049;-73
2022/05/10 06:18:15;;;;;;;0.22;0.20;;;16.50;99.90;;;;;;5024102;28;20367;-73
2022/05/10 06:20:40;;;;;;;0.65;0.65;;;16.50;99.90;;;;;;5017263;28;20046;-73
2022/05/10 06:23:06;;;;;;;0.28;0.28;;;16.50;99.90;;;;;;5007864;28;20061;-73
2022/05/10 06:25:32;;;;;;;0.25;0.25;;;16.60;99.90;;;;;;5025609;28;20042;-73
2022/05/10 06:27:58;;;;;;;1.55;0.98;;;16.60;99.90;;;;;;5028071;28;20107;-73
2022/05/10 06:30:24;;;;;;;0.73;0.73;;;16.60;99.90;;;;;;5021239;28;20108;-73
2022/05/10 06:32:50;;;;;;;3.30;0.65;;;16.60;99.90;;;;;;5010727;28;20080;-73
2022/05/10 06:35:17;;;;;;;0.10;0.10;;;16.60;99.90;;;;;;5026572;28;20075;-73
2022/05/10 06:40:27;;;;;;;0.05;0.05;;;16.70;99.90;;;;;;5025231;28;20041;-73
2022/05/10 06:42:56;;;;;;;4.75;2.92;;;16.70;99.90;;;;;;5024475;28;20037;-73
2022/05/10 06:45:22;;;;;;;0.15;0.08;;;16.70;99.90;;;;;;5013743;28;20153;-72
2022/05/10 06:47:49;;;;;;;0.20;0.20;;;16.70;99.90;;;;;;5008813;28;20068;-72
2022/05/10 06:50:17;;;;;;;1.08;0.85;;;16.70;99.90;;;;;;5023319;28;20708;-73
2022/05/10 06:52:43;;;;;;;0.95;0.60;;;16.80;99.90;;;;;;5020075;28;20125;-72
2022/05/10 06:55:11;;;;;;;1.38;1.27;;;16.70;99.90;;;;;;5023793;28;20136;-73
2022/05/10 06:57:36;;;;;;;0.45;0.32;;;16.80;99.90;;;;;;5024546;28;20048;-72
2022/05/10 07:00:05;;;;;;;0.05;0.05;;;16.80;99.90;;;;;;5019974;28;20049;-72
2022/05/10 07:02:30;;;;;;;0.20;0.20;;;16.70;99.90;;;;;;5017778;28;20049;-70
2022/05/10 07:04:56;;;;;;;0.10;0.10;;;16.70;99.90;;;;;;5022131;28;20045;-73
2022/05/10 07:07:22;;;;;;;0.10;0.10;;;16.70;99.90;;;;;;5020998;28;20073;-72
2022/05/10 07:09:48;;;;;;;0.22;0.22;;;16.70;99.90;;;;;;5026124;28;20135;-72
2022/05/10 07:12:14;;;;;;;0.52;0.43;;;16.70;99.90;;;;;;5014509;28;20145;-72
2022/05/10 07:14:39;;;;;;;0.10;0.10;;;16.60;99.90;;;;;;5019566;28;20052;-72
2022/05/10 07:17:05;;;;;;;0.88;0.30;;;16.60;99.90;;;;;;5021635;28;20072;-72
2022/05/10 07:19:31;;;;;;;0.10;0.10;;;16.60;99.90;;;;;;5016643;28;20053;-73
2022/05/10 07:21:57;;;;;;;0.10;0.10;;;16.60;99.90;;;;;;5029478;28;20041;-72
2022/05/10 07:24:22;;;;;;;0.20;0.20;;;16.70;99.90;;;;;;5012864;28;20045;-71
2022/05/10 07:26:48;;;;;;;0.70;0.47;;;16.70;99.90;;;;;;5012596;28;20045;-72
2022/05/10 07:29:15;;;;;;;1.60;1.25;;;16.80;99.90;;;;;;5028996;28;20119;-72
2022/05/10 07:31:42;;;;;;;0.10;0.10;;;16.90;99.90;;;;;;5029772;28;20073;-72
2022/05/10 07:34:08;;;;;;;0.15;0.15;;;16.90;99.90;;;;;;5021043;28;20599;-72
2022/05/10 07:36:35;;;;;;;0.30;0.30;;;17.00;99.90;;;;;;5017462;28;20053;-73
2022/05/10 07:39:09;;;;;;;0.32;0.32;;;17.00;99.90;;;;;;5020704;28;20482;-73
2022/05/10 07:41:38;;;;;;;14.15;0.75;;;17.10;99.90;;;;;;5019331;28;20572;-72
2022/05/10 07:44:08;;;;;;;2.10;1.05;;;17.10;99.90;;;;;;5029004;28;20464;-72
2022/05/10 07:46:34;;;;;;;0.45;0.45;;;17.10;99.90;;;;;;5010781;28;20049;-72
2022/05/10 07:49:00;;;;;;;0.47;0.30;;;17.20;99.90;;;;;;5009465;28;20053;-71
2022/05/10 07:51:25;;;;;;;1.00;0.90;;;17.30;99.90;;;;;;5010496;28;20042;-72
2022/05/10 07:53:51;;;;;;;0.10;0.10;;;17.40;99.90;;;;;;5016355;28;20560;-73
2022/05/10 07:56:17;;;;;;;0.80;0.80;;;17.40;99.90;;;;;;5020793;28;20419;-73
2022/05/10 07:58:44;;;;;;;0.45;0.43;;;17.50;99.90;;;;;;5030783;28;20049;-73
2022/05/10 08:01:10;;;;;;;0.47;0.47;;;17.60;99.90;;;;;;5025416;28;20046;-73
2022/05/10 08:03:35;;;;;;;8.15;0.80;;;17.70;99.90;;;;;;5026388;28;20065;-74
2022/05/10 08:06:02;;;;;;;6.72;1.55;;;17.70;99.90;;;;;;5025837;28;20053;-73
2022/05/10 08:08:30;;;;;;;0.13;0.13;;;17.80;99.90;;;;;;5013890;28;20084;-73
2022/05/10 08:10:56;;;;;;;0.10;0.10;;;17.90;99.90;;;;;;5023363;28;20088;-73
2022/05/10 08:13:25;;;;;;;0.10;0.10;;;18.00;99.90;;;;;;5028744;28;21742;-74
2022/05/10 08:15:52;;;;;;;0.47;0.47;;;18.00;99.90;;;;;;5028318;28;20119;-72
2022/05/10 08:18:19;;;;;;;0.10;0.10;;;18.10;99.90;;;;;;5020161;28;20050;-72
2022/05/10 08:20:46;;;;;;;0.73;0.52;;;18.20;99.90;;;;;;5031285;28;20050;-73
2022/05/10 08:23:16;;;;;;;0.47;0.47;;;18.20;99.90;;;;;;5030853;28;20393;-73
2022/05/10 08:25:42;;;;;;;12.25;2.53;;;18.30;99.90;;;;;;5028323;28;20589;-73
2022/05/10 08:28:13;;;;;;;0.90;0.52;;;18.40;99.90;;;;;;5031391;28;20046;-73
2022/05/10 08:30:40;;;;;;;1.65;1.55;;;18.40;99.90;;;;;;5028020;28;20049;-73
2022/05/10 08:33:06;;;;;;;0.08;0.08;;;18.60;99.90;;;;;;5028113;28;20064;-73
2022/05/10 08:35:32;;;;;;;0.20;0.20;;;18.70;99.90;;;;;;5030203;28;20049;-73
2022/05/10 08:37:57;;;;;;;0.30;0.25;;;18.80;99.90;;;;;;5027400;28;20044;-73
2022/05/10 08:40:30;;;;;;;1.33;1.23;;;18.90;99.90;;;;;;5009606;28;20180;-73
2022/05/10 08:43:00;;;;;;;0.20;0.20;;;19.00;99.90;;;;;;5010643;28;20053;-73
2022/05/10 08:45:27;;;;;;;0.80;0.80;;;19.10;99.90;;;;;;5008640;28;20049;-72
2022/05/10 08:47:53;;;;;;;0.28;0.28;;;19.20;99.90;;;;;;5011672;28;20052;-72
2022/05/10 08:50:20;;;;;;;0.28;0.28;;;19.20;99.90;;;;;;5010206;28;20049;-72
2022/05/10 08:52:47;;;;;;;0.50;0.50;;;19.30;99.90;;;;;;5010481;28;20544;-71
2022/05/10 08:55:19;;;;;;;0.30;0.30;;;19.30;99.90;;;;;;5009833;28;20054;-71
2022/05/10 08:58:07;;;;;;;3.45;1.38;;;19.30;99.90;;;;;;5010583;28;20435;-71
2022/05/10 09:00:39;;;;;;;0.00;0.00;;;19.30;99.90;;;;;;5010035;28;20497;-71
2022/05/10 09:03:27;;;;;;;0.22;0.22;;;19.40;99.90;;;;;;5010004;28;20529;-71
2022/05/10 09:05:59;;;;;;;0.47;0.47;;;19.40;99.90;;;;;;5021255;28;20049;-71
2022/05/10 09:09:02;;;;;;;0.00;0.00;;;19.50;99.90;;;;;;5030859;28;20049;-72
2022/05/10 09:11:38;;;;;;;0.20;0.20;;;19.50;99.90;;;;;;5028297;28;20127;-72
2022/05/10 09:14:07;;;;;;;9.10;3.13;;;19.60;99.90;;;;;;5024329;28;20049;-72
2022/05/10 09:16:32;;;;;;;0.03;0.03;;;19.70;99.90;;;;;;5010881;28;20053;-71
2022/05/10 09:18:58;;;;;;;0.57;0.57;;;19.70;99.90;;;;;;5022010;28;20057;-71
2022/05/10 09:21:47;;;;;;;2.92;1.55;;;19.80;99.90;;;;;;5028461;28;20578;-71
2022/05/10 09:24:16;;;;;;;0.47;0.38;;;19.80;99.90;;;;;;5027105;28;20197;-71
2022/05/10 09:26:51;;;;;;;0.20;0.20;;;19.90;99.90;;;;;;5027974;28;20053;-72
2022/05/10 09:29:37;;;;;;;0.20;0.20;;;20.00;99.90;;;;;;5029287;28;20065;-71
2022/05/10 09:35:18;;;;;;;0.75;0.75;;;20.10;99.90;;;;;;5028437;28;20533;-72
2022/05/10 09:37:51;;;;;;;0.43;0.43;;;20.10;99.90;;;;;;5030801;28;20088;-71
2022/05/10 09:40:41;;;;;;;1.77;1.20;;;20.10;99.90;;;;;;5028870;28;20133;-71
2022/05/10 09:43:29;;;;;;;0.30;0.30;;;20.10;99.90;;;;;;5010328;28;20057;-71
2022/05/10 09:46:18;;;;;;;0.30;0.30;;;20.00;99.90;;;;;;5010553;28;20092;-71
2022/05/10 09:48:44;;;;;;;0.30;0.30;;;20.00;99.90;;;;;;5025494;28;20115;-72
2022/05/10 09:51:39;;;;;;;1.17;1.02;;;20.00;99.90;;;;;;5030244;28;20615;-72
2022/05/10 09:54:21;;;;;;;0.47;0.47;;;20.00;99.90;;;;;;5018105;28;20061;-70
2022/05/10 09:56:52;;;;;;;0.30;0.30;;;20.00;99.90;;;;;;5008753;28;20116;-71
2022/05/10 09:59:17;;;;;;;0.47;0.47;;;20.00;99.90;;;;;;5010332;28;20092;-70
2022/05/10 10:01:56;;;;;;;0.20;0.20;;;20.00;99.90;;;;;;5008809;28;20500;-70
2022/05/10 10:04:38;;;;;;;0.55;0.55;;;19.90;99.90;;;;;;5008949;28;20593;-70
2022/05/10 10:07:16;;;;;;;0.80;0.57;;;19.90;99.90;;;;;;5019528;28;20034;-70
2022/05/10 10:09:45;;;;;;;2.10;1.30;;;19.90;99.90;;;;;;5029011;28;20481;-71
2022/05/10 10:12:30;;;;;;;2.28;0.85;;;19.90;99.90;;;;;;5030261;28;20120;-71
2022/05/10 10:14:57;;;;;;;0.00;0.00;;;19.90;99.90;;;;;;5017246;28;20049;-71
2022/05/10 10:17:29;;;;;;;0.22;0.22;;;19.90;99.90;;;;;;5007040;28;20050;-72
2022/05/10 10:20:21;;;;;;;0.47;0.43;;;19.80;99.90;;;;;;5009546;28;20615;-71
2022/05/10 10:22:51;;;;;;;1.00;0.80;;;19.80;99.90;;;;;;5018488;28;20057;-71
2022/05/10 10:25:35;;;;;;;1.25;0.82;;;19.80;99.90;;;;;;5014841;28;20133;-71
2022/05/10 10:28:29;;;;;;;1.85;0.90;;;19.80;99.90;;;;;;5029749;28;20128;-71
2022/05/10 10:31:15;;;;;;;1.05;0.70;;;19.80;99.90;;;;;;5029626;28;20103;-71
2022/05/10 10:33:49;;;;;;;0.57;0.57;;;19.80;99.90;;;;;;5028718;28;20489;-71
2022/05/10 10:36:23;;;;;;;1.55;1.30;;;19.80;99.90;;;;;;5009243;28;20180;-71
2022/05/10 10:39:19;;;;;;;0.15;0.15;;;19.80;99.90;;;;;;5010584;28;20549;-71
2022/05/10 10:42:02;;;;;;;0.60;0.60;;;19.90;99.90;;;;;;5014134;28;20085;-70
2022/05/10 10:44:29;;;;;;;;;;;19.90;99.90;;;;;;5013740;28;20103;-72
2022/05/10 10:47:19;;;;;;;0.63;0.50;;;20.00;99.90;;;;;;5013315;28;20005;-71
2022/05/10 10:49:53;;;;;;;0.10;0.10;;;20.10;99.90;;;;;;5026303;28;20061;-72
2022/05/10 10:52:18;;;;;;;0.20;0.20;;;20.10;99.90;;;;;;5032826;28;20068;-71
2022/05/10 10:54:46;;;;;;;0.10;0.10;;;20.20;99.90;;;;;;5033299;28;20061;-71
2022/05/10 10:57:33;;;;;;;0.10;0.10;;;20.20;99.90;;;;;;5031080;28;20056;-71
2022/05/10 11:00:18;;;;;;;1.75;1.48;;;20.20;99.90;;;;;;5032731;28;20048;-71
2022/05/10 11:02:44;;;;;;;2.08;0.93;;;20.10;99.90;;;;;;5018378;28;20050;-71
2022/05/10 11:05:32;;;;;;;0.80;0.65;;;20.10;99.90;;;;;;5012485;28;20049;-71
2022/05/10 11:08:32;;;;;;;0.60;0.60;;;20.10;99.90;;;;;;5012457;28;20057;-71
2022/05/10 11:11:15;;;;;;;0.10;0.10;;;20.20;99.90;;;;;;5011795;28;20068;-72
2022/05/10 11:13:49;;;;;;;0.15;0.15;;;20.20;99.90;;;;;;5014824;28;20053;-70
2022/05/10 11:16:35;;;;;;;0.10;0.10;;;20.30;99.90;;;;;;5026505;28;20508;-71
2022/05/10 11:19:19;;;;;;;2.50;0.85;;;20.30;99.90;;;;;;5031505;28;20401;-71
2022/05/10 11:22:16;;;;;;;2.08;0.98;;;20.30;99.90;;;;;;5033363;28;20064;-72
2022/05/10 11:25:06;;;;;;;0.40;0.40;;;20.30;99.90;;;;;;5017571;28;20054;-72
2022/05/10 11:27:51;;;;;;;37.33;3.72;;;20.40;99.90;;;;;;5011024;28;20133;-70
2022/05/10 11:30:23;;;;;;;0.35;0.35;;;20.40;99.90;;;;;;5011673;28;20050;-70
2022/05/10 11:33:16;;;;;;;0.90;0.63;;;20.50;99.90;;;;;;5012087;28;20414;-71
2022/05/10 11:35:55;;;;;;;0.20;0.20;;;20.60;99.90;;;;;;5030213;28;20600;-69
2022/05/10 11:38:36;;;;;;;0.52;0.52;;;20.60;99.90;;;;;;5031192;28;20132;-69
2022/05/10 11:41:08;;;;;;;0.40;0.40;;;20.50;99.90;;;;;;5026657;28;20482;-70
2022/05/10 11:44:00;;;;;;;0.20;0.20;;;20.60;99.90;;;;;;5026757;28;20550;-70
2022/05/10 11:46:57;;;;;;;2.45;0.63;;;20.50;99.90;;;;;;5032585;28;20079;-70
2022/05/10 11:49:35;;;;;;;0.08;0.08;;;20.60;99.90;;;;;;5031991;28;20482;-71
2022/05/10 11:52:33;;;;;;;0.30;0.30;;;20.70;99.90;;;;;;5028953;28;20041;-70
2022/05/10 11:55:04;;;;;;;0.10;0.10;;;20.70;99.80;;;;;;5031562;28;20061;-70
2022/05/10 11:57:33;;;;;;;0.00;0.00;;;20.90;98.70;;;;;;5026572;28;20049;-70
2022/05/10 12:00:27;;;;;;;0.00;0.00;;;21.00;98.20;;;;;;5012468;28;20049;-70
2022/05/10 12:02:56;;;;;;;0.20;0.20;;;20.90;97.70;;;;;;5010149;28;20049;-69
2022/05/10 12:05:25;;;;;;;1.98;1.25;;;20.80;95.20;;;;;;5031457;28;20056;-69
2022/05/10 12:08:04;;;;;;;0.00;0.00;;;20.80;95.00;;;;;;5032880;28;20126;-69
2022/05/10 12:10:42;;;;;;;0.10;0.10;;;20.70;95.40;;;;;;5032207;28;20500;-68
2022/05/10 12:22:06;;;;;;;0.10;0.10;;;20.30;94.70;;;;;;5011370;28;20038;-69
2022/05/10 12:24:36;;;;;;;0.30;0.30;;;20.20;95.40;;;;;;5029427;28;20053;-70
2022/05/10 12:27:11;;;;;;;4.68;0.73;;;20.10;95.60;;;;;;5031768;28;20148;-69
2022/05/10 12:29:39;;;;;;;0.25;0.25;;;20.10;95.80;;;;;;5029068;28;20099;-70
2022/05/10 12:32:39;;;;;;;0.00;0.00;;;20.00;96.50;;;;;;5031120;28;20386;-70
2022/05/10 12:35:39;;;;;;;0.00;0.00;;;20.00;97.80;;;;;;5029494;28;20197;-69
2022/05/10 12:38:06;;;;;;;3.42;1.40;;;19.90;99.80;;;;;;5029490;28;20085;-69
2022/05/10 12:40:35;;;;;;;0.20;0.20;;;19.70;99.90;;;;;;5030172;28;20049;-70
2022/05/10 12:43:09;;;;;;;0.30;0.30;;;19.70;99.90;;;;;;5031404;28;20080;-69
2022/05/10 12:45:48;;;;;;;0.47;0.47;;;19.60;99.90;;;;;;5028620;28;20416;-70
2022/05/10 12:48:43;;;;;;;0.10;0.10;;;19.50;99.90;;;;;;5029885;28;20045;-70
2022/05/10 12:51:28;;;;;;;0.00;0.00;;;19.40;99.90;;;;;;5028890;28;20054;-70
2022/05/10 12:53:58;;;;;;;0.10;0.10;;;19.30;99.90;;;;;;5029295;28;20477;-70
2022/05/10 12:56:25;;;;;;;0.05;0.05;;;19.30;99.90;;;;;;5029557;28;20057;-70
2022/05/10 12:58:54;;;;;;;0.10;0.10;;;19.20;99.90;;;;;;5028359;28;20053;-69
2022/05/10 13:01:24;;;;;;;0.15;0.15;;;19.10;99.90;;;;;;5029827;28;20049;-70
2022/05/10 13:04:13;;;;;;;0.03;0.03;;;19.10;99.90;;;;;;5014729;28;20050;-70
2022/05/10 13:06:52;;;;;;;0.08;0.08;;;19.10;99.90;;;;;;5010597;28;20050;-69
2022/05/10 13:09:29;;;;;;;0.88;0.43;;;19.00;99.90;;;;;;5010098;28;20098;-70
2022/05/10 13:11:58;;;;;;;2.65;1.25;;;19.10;99.90;;;;;;5021837;28;20493;-70
2022/05/10 13:14:26;;;;;;;0.00;0.00;;;19.00;99.90;;;;;;5021827;28;20053;-70
2022/05/10 13:16:54;;;;;;;0.03;0.03;;;19.00;99.90;;;;;;5013581;28;20250;-70
2022/05/10 13:19:23;;;;;;;0.08;0.03;;;18.90;99.90;;;;;;5008935;28;20057;-71
2022/05/10 13:21:49;;;;;;;0.38;0.38;;;18.80;99.90;;;;;;5030309;28;20046;-70
2022/05/10 13:24:17;;;;;;;0.00;0.00;;;18.80;99.90;;;;;;5030662;28;20382;-71
2022/05/10 13:27:19;;;;;;;1.75;1.15;;;18.80;99.90;;;;;;5014096;28;20038;-70
2022/05/10 13:29:48;;;;;;;0.38;0.38;;;18.60;99.90;;;;;;5010849;28;20494;-71
2022/05/10 13:32:37;;;;;;;1.15;0.35;;;18.60;99.90;;;;;;5010719;28;20054;-71
2022/05/10 13:35:47;;;;;;;0.00;0.00;;;18.60;99.90;;;;;;5030576;28;20099;-71
2022/05/10 13:38:28;;;;;;;0.00;0.00;;;18.60;99.90;;;;;;5010589;28;20045;-70